createdAt,value
2022-08-16T00:00:26.369Z,30.06
2022-08-16T00:01:34.178Z,30.05
2022-08-16T00:02:34.975Z,30.05
2022-08-16T00:03:38.066Z,30.05
2022-08-16T00:04:43.052Z,30.03
2022-08-16T00:05:48.574Z,30.03
2022-08-16T00:06:52.147Z,30.03
2022-08-16T00:07:57.072Z,30.02
2022-08-16T00:09:00.264Z,30.02
2022-08-16T00:10:06.155Z,30.02
2022-08-16T00:11:15.973Z,30.00
2022-08-16T00:12:17.885Z,29.99
2022-08-16T00:13:21.081Z,29.99
2022-08-16T00:14:29.247Z,29.98
2022-08-16T00:15:51.561Z,29.98
2022-08-16T00:17:06.334Z,29.98
2022-08-16T00:17:57.263Z,29.97
2022-08-16T00:18:59.681Z,29.97
2022-08-16T00:20:05.831Z,29.96
2022-08-16T00:21:10.693Z,29.95
2022-08-16T00:22:15.457Z,29.96
2022-08-16T00:23:18.911Z,29.95
2022-08-16T00:24:32.851Z,29.94
2022-08-16T00:26:35.191Z,29.94
2022-08-16T00:26:43.703Z,29.94
2022-08-16T00:27:41.101Z,29.94
2022-08-16T00:28:46.066Z,29.93
2022-08-16T00:30:00.946Z,29.92
2022-08-16T00:30:55.509Z,29.92
2022-08-16T00:32:06.084Z,29.92
2022-08-16T00:33:08.533Z,29.91
2022-08-16T00:34:18.438Z,29.92
2022-08-16T00:35:21.086Z,29.90
2022-08-16T00:36:24.762Z,29.91
2022-08-16T00:37:58.798Z,29.90
2022-08-16T00:38:41.392Z,29.89
2022-08-16T00:39:38.990Z,29.89
2022-08-16T00:40:50.879Z,29.88
2022-08-16T00:41:50.849Z,29.88
2022-08-16T00:42:54.891Z,29.86
2022-08-16T00:44:01.518Z,29.84
2022-08-16T00:45:28.561Z,29.85
2022-08-16T00:46:35.673Z,29.83
2022-08-16T00:47:42.696Z,29.82
2022-08-16T00:48:48.139Z,29.81
2022-08-16T00:49:56.661Z,29.80
2022-08-16T00:51:01.929Z,29.80
2022-08-16T00:52:04.974Z,29.79
2022-08-16T00:53:11.938Z,29.78
2022-08-16T00:54:14.959Z,29.77
2022-08-16T00:55:22.737Z,29.77
2022-08-16T00:56:57.657Z,29.78
2022-08-16T00:57:59.959Z,29.77
2022-08-16T00:58:44.588Z,29.77
2022-08-16T00:59:58.681Z,29.75
2022-08-16T01:00:55.219Z,29.74
2022-08-16T01:01:59.803Z,29.74
2022-08-16T01:03:08.150Z,29.73
2022-08-16T01:04:29.124Z,29.73
2022-08-16T01:05:37.801Z,29.72
2022-08-16T01:06:49.338Z,29.71
2022-08-16T01:07:52.015Z,29.68
2022-08-16T01:08:54.560Z,29.66
2022-08-16T01:09:58.502Z,29.64
2022-08-16T01:11:04.989Z,29.62
2022-08-16T01:12:10.896Z,29.60
2022-08-16T01:13:19.291Z,29.59
2022-08-16T01:14:30.215Z,29.59
2022-08-16T01:15:37.078Z,29.58
2022-08-16T01:16:44.764Z,29.58
2022-08-16T01:17:55.984Z,29.59
2022-08-16T01:19:00.916Z,29.58
2022-08-16T01:20:23.368Z,29.58
2022-08-16T01:21:51.946Z,29.58
2022-08-16T01:23:57.995Z,29.58
2022-08-16T01:24:53.918Z,29.57
2022-08-16T01:26:00.371Z,29.54
2022-08-16T01:27:22.548Z,29.53
2022-08-16T01:28:30.854Z,29.52
2022-08-16T01:29:56.820Z,29.51
2022-08-16T01:30:49.662Z,29.50
2022-08-16T01:31:49.530Z,29.50
2022-08-16T01:33:01.515Z,29.51
2022-08-16T01:34:03.654Z,29.51
2022-08-16T01:35:17.446Z,29.52
2022-08-16T01:36:18.377Z,29.51
2022-08-16T01:37:21.694Z,29.52
2022-08-16T01:38:28.736Z,29.52
2022-08-16T01:39:35.478Z,29.52
2022-08-16T01:40:38.891Z,29.52
2022-08-16T01:41:44.201Z,29.53
2022-08-16T01:42:49.696Z,29.54
2022-08-16T01:43:54.686Z,29.53
2022-08-16T01:44:59.572Z,29.52
2022-08-16T01:46:37.521Z,29.53
2022-08-16T01:47:11.153Z,29.53
2022-08-16T01:48:19.951Z,29.53
2022-08-16T01:49:23.102Z,29.54
2022-08-16T01:50:42.508Z,29.54
2022-08-16T01:51:34.467Z,29.54
2022-08-16T01:52:41.761Z,29.54
2022-08-16T01:53:55.407Z,29.54
2022-08-16T01:54:55.261Z,29.54
2022-08-16T01:55:58.653Z,29.54
2022-08-16T01:57:03.262Z,29.53
2022-08-16T01:58:06.422Z,29.53
2022-08-16T01:59:15.863Z,29.53
2022-08-16T02:00:19.980Z,29.54
2022-08-16T02:01:26.141Z,29.54
2022-08-16T02:02:29.542Z,29.53
2022-08-16T02:03:32.609Z,29.53
2022-08-16T02:04:48.290Z,29.52
2022-08-16T02:05:42.141Z,29.52
2022-08-16T02:06:47.151Z,29.51
2022-08-16T02:07:53.609Z,29.51
2022-08-16T02:08:57.491Z,29.50
2022-08-16T02:10:02.184Z,29.50
2022-08-16T02:11:10.825Z,29.50
2022-08-16T02:12:50.529Z,29.49
2022-08-16T02:13:21.065Z,29.47
2022-08-16T02:14:29.700Z,29.46
2022-08-16T02:15:37.884Z,29.45
2022-08-16T02:16:42.171Z,29.46
2022-08-16T02:17:47.268Z,29.45
2022-08-16T02:18:52.976Z,29.44
2022-08-16T02:19:58.865Z,29.42
2022-08-16T02:21:04.031Z,29.43
2022-08-16T02:22:34.833Z,29.41
2022-08-16T02:23:17.448Z,29.41
2022-08-16T02:24:32.698Z,29.40
2022-08-16T02:25:52.121Z,29.39
2022-08-16T02:26:34.418Z,29.39
2022-08-16T02:27:40.988Z,29.38
2022-08-16T02:28:45.348Z,29.38
2022-08-16T02:29:49.616Z,29.37
2022-08-16T02:30:57.095Z,29.36
2022-08-16T02:32:03.266Z,29.35
2022-08-16T02:33:07.038Z,29.34
2022-08-16T02:34:12.072Z,29.34
2022-08-16T02:35:16.685Z,29.34
2022-08-16T02:36:47.418Z,29.33
2022-08-16T02:37:52.102Z,29.32
2022-08-16T02:38:31.564Z,29.31
2022-08-16T02:39:35.423Z,29.31
2022-08-16T02:40:39.777Z,29.30
2022-08-16T02:41:53.275Z,29.29
2022-08-16T02:42:54.489Z,29.28
2022-08-16T02:43:58.507Z,29.28
2022-08-16T02:45:04.281Z,29.27
2022-08-16T02:46:10.270Z,29.26
2022-08-16T02:47:13.230Z,29.25
2022-08-16T02:48:30.650Z,29.25
2022-08-16T02:49:23.375Z,29.24
2022-08-16T02:50:54.288Z,29.23
2022-08-16T02:51:35.666Z,29.23
2022-08-16T02:52:39.233Z,29.22
2022-08-16T02:53:46.409Z,29.21
2022-08-16T02:54:55.383Z,29.21
2022-08-16T02:55:54.540Z,29.20
2022-08-16T02:56:57.817Z,29.19
2022-08-16T02:58:03.018Z,29.19
2022-08-16T02:59:11.485Z,29.18
2022-08-16T03:00:34.261Z,29.17
2022-08-16T03:01:25.124Z,29.16
2022-08-16T03:02:31.998Z,29.15
2022-08-16T03:04:39.168Z,29.15
2022-08-16T03:04:52.209Z,29.14
2022-08-16T03:05:50.021Z,29.13
2022-08-16T03:06:56.362Z,29.13
2022-08-16T03:07:59.851Z,29.11
2022-08-16T03:09:03.686Z,29.10
2022-08-16T03:10:11.700Z,29.11
2022-08-16T03:11:21.866Z,29.09
2022-08-16T03:12:30.368Z,29.08
2022-08-16T03:13:29.339Z,29.08
2022-08-16T03:14:34.209Z,29.06
2022-08-16T03:15:38.853Z,29.06
2022-08-16T03:16:41.985Z,29.04
2022-08-16T03:17:53.880Z,29.02
2022-08-16T03:18:51.492Z,29.02
2022-08-16T03:19:59.973Z,29.01
2022-08-16T03:21:00.361Z,29.00
2022-08-16T03:22:04.219Z,29.00
2022-08-16T03:23:07.789Z,28.98
2022-08-16T03:24:29.235Z,28.97
2022-08-16T03:25:16.760Z,28.96
2022-08-16T03:26:22.859Z,28.95
2022-08-16T03:27:31.317Z,28.94
2022-08-16T03:28:35.745Z,28.95
2022-08-16T03:29:39.165Z,28.94
2022-08-16T03:30:44.541Z,28.93
2022-08-16T03:31:51.646Z,28.93
2022-08-16T03:32:53.513Z,28.93
2022-08-16T03:33:58.473Z,28.92
2022-08-16T03:35:01.840Z,28.92
2022-08-16T03:36:29.859Z,28.93
2022-08-16T03:37:13.435Z,28.94
2022-08-16T03:38:33.876Z,28.93
2022-08-16T03:39:24.709Z,28.94
2022-08-16T03:40:31.778Z,28.94
2022-08-16T03:41:49.829Z,28.94
2022-08-16T03:43:19.063Z,28.94
2022-08-16T03:43:51.855Z,28.94
2022-08-16T03:44:50.378Z,28.94
2022-08-16T03:45:56.752Z,28.94
2022-08-16T03:47:02.107Z,28.95
2022-08-16T03:48:08.905Z,28.95
2022-08-16T03:49:12.602Z,28.95
2022-08-16T03:50:26.133Z,28.95
2022-08-16T03:51:25.497Z,28.96
2022-08-16T03:52:31.777Z,28.96
2022-08-16T03:53:37.598Z,28.96
2022-08-16T03:54:53.693Z,28.97
2022-08-16T03:55:46.547Z,28.97
2022-08-16T03:56:58.021Z,28.98
2022-08-16T03:57:55.359Z,28.99
2022-08-16T03:58:59.963Z,29.00
2022-08-16T04:00:35.017Z,29.01
2022-08-16T04:01:19.695Z,29.00
2022-08-16T04:02:31.655Z,29.01
2022-08-16T04:03:29.268Z,29.02
2022-08-16T04:04:35.268Z,29.02
2022-08-16T04:05:44.300Z,29.02
2022-08-16T04:06:48.297Z,29.03
2022-08-16T04:07:53.366Z,29.04
2022-08-16T04:08:57.015Z,29.04
2022-08-16T04:10:00.373Z,29.03
2022-08-16T04:11:05.597Z,29.03
2022-08-16T04:12:53.504Z,29.03
2022-08-16T04:13:20.584Z,29.02
2022-08-16T04:14:33.270Z,29.03
2022-08-16T04:15:29.775Z,29.03
2022-08-16T04:16:40.457Z,29.03
2022-08-16T04:17:45.563Z,29.03
2022-08-16T04:18:50.835Z,29.02
2022-08-16T04:19:54.922Z,29.03
2022-08-16T04:20:59.461Z,29.02
2022-08-16T04:22:08.673Z,29.02
2022-08-16T04:23:10.317Z,29.02
2022-08-16T04:24:15.246Z,29.02
2022-08-16T04:25:19.037Z,29.01
2022-08-16T04:26:23.126Z,29.01
2022-08-16T04:27:28.726Z,29.00
2022-08-16T04:28:53.669Z,29.00
2022-08-16T04:29:46.098Z,29.00
2022-08-16T04:30:43.771Z,28.99
2022-08-16T04:31:56.797Z,28.98
2022-08-16T04:32:56.683Z,28.95
2022-08-16T04:34:01.748Z,28.94
2022-08-16T04:35:13.718Z,28.95
2022-08-16T04:36:20.191Z,28.93
2022-08-16T04:37:18.828Z,28.92
2022-08-16T04:38:25.551Z,28.93
2022-08-16T04:39:45.912Z,28.93
2022-08-16T04:40:36.447Z,28.92
2022-08-16T04:41:39.782Z,28.91
2022-08-16T04:42:45.243Z,28.92
2022-08-16T04:43:48.749Z,28.91
2022-08-16T04:44:57.566Z,28.92
2022-08-16T04:46:03.199Z,28.92
2022-08-16T04:47:21.446Z,28.91
2022-08-16T04:48:28.514Z,28.92
2022-08-16T04:49:22.064Z,28.92
2022-08-16T04:50:30.395Z,28.92
2022-08-16T04:51:53.958Z,28.92
2022-08-16T04:52:53.315Z,28.91
2022-08-16T04:53:58.253Z,28.91
2022-08-16T04:55:01.667Z,28.91
2022-08-16T04:56:11.605Z,28.90
2022-08-16T04:57:12.267Z,28.91
2022-08-16T04:58:43.693Z,28.90
2022-08-16T04:59:21.648Z,28.92
2022-08-16T05:00:33.771Z,28.92
2022-08-16T05:01:56.046Z,28.92
2022-08-16T05:02:43.758Z,28.93
2022-08-16T05:04:00.522Z,28.92
2022-08-16T05:04:54.000Z,28.93
2022-08-16T05:06:04.807Z,28.93
2022-08-16T05:07:02.803Z,28.94
2022-08-16T05:08:28.234Z,28.95
2022-08-16T05:09:18.987Z,28.97
2022-08-16T05:10:24.509Z,28.98
2022-08-16T05:11:32.043Z,28.99
2022-08-16T05:12:35.069Z,28.99
2022-08-16T05:13:42.665Z,29.01
2022-08-16T05:15:01.659Z,29.02
2022-08-16T05:15:54.762Z,29.02
2022-08-16T05:17:00.196Z,29.03
2022-08-16T05:18:04.156Z,29.02
2022-08-16T05:19:11.731Z,29.03
2022-08-16T05:20:35.274Z,29.05
2022-08-16T05:21:21.674Z,29.06
2022-08-16T05:22:49.684Z,29.06
2022-08-16T05:24:00.326Z,29.08
2022-08-16T05:25:09.082Z,29.07
2022-08-16T05:26:19.813Z,29.06
2022-08-16T05:27:20.077Z,29.05
2022-08-16T05:28:23.237Z,29.05
2022-08-16T05:30:01.017Z,29.03
2022-08-16T05:30:39.106Z,29.03
2022-08-16T05:31:44.201Z,29.02
2022-08-16T05:32:49.317Z,29.03
2022-08-16T05:33:53.670Z,29.05
2022-08-16T05:34:58.777Z,29.06
2022-08-16T05:36:04.099Z,29.08
2022-08-16T05:37:14.662Z,29.09
2022-08-16T05:38:33.039Z,29.11
2022-08-16T05:39:22.853Z,29.13
2022-08-16T05:40:29.490Z,29.15
2022-08-16T05:41:44.696Z,29.17
2022-08-16T05:42:40.022Z,29.20
2022-08-16T05:43:47.539Z,29.21
2022-08-16T05:44:52.277Z,29.23
2022-08-16T05:45:57.509Z,29.25
2022-08-16T05:47:01.300Z,29.26
2022-08-16T05:48:05.625Z,29.28
2022-08-16T05:49:12.811Z,29.29
2022-08-16T05:50:19.133Z,29.29
2022-08-16T05:51:38.223Z,29.29
2022-08-16T05:52:28.421Z,29.30
2022-08-16T05:53:31.607Z,29.29
2022-08-16T05:55:01.062Z,29.30
2022-08-16T05:55:53.489Z,29.30
2022-08-16T05:56:57.986Z,29.29
2022-08-16T05:58:03.083Z,29.28
2022-08-16T05:59:06.861Z,29.27
2022-08-16T06:00:12.872Z,29.28
2022-08-16T06:01:19.441Z,29.27
2022-08-16T06:02:29.036Z,29.26
2022-08-16T06:03:32.154Z,29.27
2022-08-16T06:04:42.265Z,29.26
2022-08-16T06:05:45.484Z,29.27
2022-08-16T06:06:56.471Z,29.27
2022-08-16T06:07:58.479Z,29.25
2022-08-16T06:09:04.745Z,29.25
2022-08-16T06:10:11.182Z,29.24
2022-08-16T06:11:14.673Z,29.24
2022-08-16T06:12:26.770Z,29.22
2022-08-16T06:13:25.507Z,29.21
2022-08-16T06:14:30.801Z,29.19
2022-08-16T06:15:35.261Z,29.19
2022-08-16T06:16:39.225Z,29.18
2022-08-16T06:17:44.498Z,29.18
2022-08-16T06:18:49.579Z,29.19
2022-08-16T06:19:54.391Z,29.20
2022-08-16T06:21:00.046Z,29.22
2022-08-16T06:22:04.052Z,29.22
2022-08-16T06:23:17.261Z,29.23
2022-08-16T06:24:52.706Z,29.24
2022-08-16T06:25:36.562Z,29.23
2022-08-16T06:26:34.825Z,29.25
2022-08-16T06:27:39.384Z,29.25
2022-08-16T06:28:37.163Z,29.26
2022-08-16T06:29:50.175Z,29.26
2022-08-16T06:30:50.372Z,29.27
2022-08-16T06:31:56.083Z,29.27
2022-08-16T06:33:01.865Z,29.27
2022-08-16T06:34:56.246Z,29.26
2022-08-16T06:35:11.665Z,29.26
2022-08-16T06:36:16.688Z,29.26
2022-08-16T06:37:21.545Z,29.25
2022-08-16T06:38:33.908Z,29.24
2022-08-16T06:39:31.371Z,29.22
2022-08-16T06:40:41.086Z,29.20
2022-08-16T06:41:47.956Z,29.19
2022-08-16T06:43:09.652Z,29.18
2022-08-16T06:44:21.487Z,29.17
2022-08-16T06:45:22.540Z,29.17
2022-08-16T06:46:37.094Z,29.17
2022-08-16T06:47:53.103Z,29.17
2022-08-16T06:48:51.884Z,29.18
2022-08-16T06:49:54.416Z,29.17
2022-08-16T06:50:59.289Z,29.19
2022-08-16T06:52:03.401Z,29.20
2022-08-16T06:53:09.689Z,29.22
2022-08-16T06:54:16.459Z,29.23
2022-08-16T06:55:20.327Z,29.25
2022-08-16T06:56:28.829Z,29.29
2022-08-16T06:57:40.827Z,29.31
2022-08-16T06:58:45.047Z,29.35
2022-08-16T06:59:58.184Z,29.38
2022-08-16T07:00:55.743Z,29.41
2022-08-16T07:02:00.721Z,29.44
2022-08-16T07:03:26.799Z,29.46
2022-08-16T07:04:12.423Z,29.48
2022-08-16T07:05:16.798Z,29.49
2022-08-16T07:06:26.654Z,29.48
2022-08-16T07:07:34.371Z,29.49
2022-08-16T07:08:37.330Z,29.48
2022-08-16T07:09:41.084Z,29.48
2022-08-16T07:10:44.866Z,29.47
2022-08-16T07:11:52.275Z,29.47
2022-08-16T07:13:04.105Z,29.47
2022-08-16T07:14:23.884Z,29.46
2022-08-16T07:15:09.634Z,29.44
2022-08-16T07:16:16.076Z,29.43
2022-08-16T07:17:21.089Z,29.42
2022-08-16T07:18:26.456Z,29.41
2022-08-16T07:20:03.013Z,29.41
2022-08-16T07:20:47.864Z,29.40
2022-08-16T07:21:46.282Z,29.40
2022-08-16T07:22:52.750Z,29.38
2022-08-16T07:23:57.966Z,29.37
2022-08-16T07:25:01.662Z,29.37
2022-08-16T07:26:07.322Z,29.36
2022-08-16T07:27:12.512Z,29.36
2022-08-16T07:28:20.441Z,29.37
2022-08-16T07:29:22.894Z,29.37
2022-08-16T07:30:45.414Z,29.38
2022-08-16T07:31:37.846Z,29.38
2022-08-16T07:32:38.283Z,29.37
2022-08-16T07:33:52.605Z,29.37
2022-08-16T07:34:50.536Z,29.37
2022-08-16T07:35:55.613Z,29.37
2022-08-16T07:37:02.511Z,29.38
2022-08-16T07:38:09.321Z,29.38
2022-08-16T07:39:16.032Z,29.40
2022-08-16T07:40:31.873Z,29.42
2022-08-16T07:41:25.149Z,29.44
2022-08-16T07:42:35.367Z,29.46
2022-08-16T07:43:37.130Z,29.48
2022-08-16T07:44:50.440Z,29.49
2022-08-16T07:45:51.259Z,29.51
2022-08-16T07:46:56.288Z,29.52
2022-08-16T07:47:57.897Z,29.54
2022-08-16T07:49:04.249Z,29.57
2022-08-16T07:50:10.260Z,29.58
2022-08-16T07:51:15.758Z,29.60
2022-08-16T07:52:20.617Z,29.61
2022-08-16T07:53:24.818Z,29.62
2022-08-16T07:54:32.421Z,29.64
2022-08-16T07:55:45.912Z,29.65
2022-08-16T07:56:40.614Z,29.67
2022-08-16T07:57:55.786Z,29.67
2022-08-16T07:58:48.991Z,29.69
2022-08-16T07:59:57.094Z,29.69
2022-08-16T08:01:01.183Z,29.69
2022-08-16T08:02:05.137Z,29.69
2022-08-16T08:03:11.607Z,29.68
2022-08-16T08:04:16.474Z,29.67
2022-08-16T08:05:35.270Z,29.67
2022-08-16T08:06:28.008Z,29.65
2022-08-16T08:07:33.005Z,29.65
2022-08-16T08:08:50.563Z,29.64
2022-08-16T08:09:44.192Z,29.65
2022-08-16T08:10:50.621Z,29.65
2022-08-16T08:11:59.985Z,29.67
2022-08-16T08:12:59.717Z,29.70
2022-08-16T08:14:06.649Z,29.72
2022-08-16T08:15:11.320Z,29.74
2022-08-16T08:16:18.489Z,29.77
2022-08-16T08:17:22.323Z,29.80
2022-08-16T08:18:30.315Z,29.82
2022-08-16T08:19:31.745Z,29.86
2022-08-16T08:20:36.607Z,29.90
2022-08-16T08:22:01.444Z,29.96
2022-08-16T08:22:48.694Z,30.01
2022-08-16T08:23:53.284Z,30.07
2022-08-16T08:24:59.693Z,30.12
2022-08-16T08:26:09.902Z,30.17
2022-08-16T08:27:11.189Z,30.22
2022-08-16T08:28:15.299Z,30.25
2022-08-16T08:29:23.022Z,30.30
2022-08-16T08:30:51.052Z,30.34
2022-08-16T08:31:31.214Z,30.38
2022-08-16T08:32:58.775Z,30.41
2022-08-16T08:33:43.807Z,30.44
2022-08-16T08:34:48.470Z,30.47
2022-08-16T08:35:52.691Z,30.49
2022-08-16T08:36:55.828Z,30.52
2022-08-16T08:38:01.376Z,30.53
2022-08-16T08:39:12.661Z,30.56
2022-08-16T08:40:12.867Z,30.59
2022-08-16T08:41:18.637Z,30.61
2022-08-16T08:42:26.659Z,30.64
2022-08-16T08:43:26.663Z,30.66
2022-08-16T08:44:34.833Z,30.68
2022-08-16T08:45:52.715Z,30.71
2022-08-16T08:47:00.250Z,30.73
2022-08-16T08:47:54.266Z,30.75
2022-08-16T08:49:01.930Z,30.77
2022-08-16T08:50:02.544Z,30.77
2022-08-16T08:51:09.802Z,30.76
2022-08-16T08:52:34.755Z,30.78
2022-08-16T08:53:30.407Z,30.75
2022-08-16T08:54:32.481Z,30.74
2022-08-16T08:55:35.791Z,30.73
2022-08-16T08:56:45.276Z,30.73
2022-08-16T08:57:47.862Z,30.74
2022-08-16T08:59:13.309Z,30.75
2022-08-16T09:00:21.314Z,30.77
2022-08-16T09:01:31.970Z,30.80
2022-08-16T09:02:33.223Z,30.81
2022-08-16T09:03:38.023Z,30.82
2022-08-16T09:04:43.118Z,30.83
2022-08-16T09:05:51.624Z,30.84
2022-08-16T09:06:56.524Z,30.82
2022-08-16T09:08:05.792Z,30.82
2022-08-16T09:09:09.434Z,30.81
2022-08-16T09:10:21.163Z,30.78
2022-08-16T09:11:20.247Z,30.77
2022-08-16T09:12:36.296Z,30.75
2022-08-16T09:13:36.099Z,30.72
2022-08-16T09:14:39.471Z,30.69
2022-08-16T09:15:44.310Z,30.66
2022-08-16T09:17:01.384Z,30.62
2022-08-16T09:17:55.075Z,30.58
2022-08-16T09:19:03.805Z,30.55
2022-08-16T09:20:07.307Z,30.50
2022-08-16T09:21:11.192Z,30.47
2022-08-16T09:22:19.923Z,30.42
2022-08-16T09:23:24.932Z,30.37
2022-08-16T09:24:51.724Z,30.32
2022-08-16T09:25:35.407Z,30.28
2022-08-16T09:26:45.319Z,30.23
2022-08-16T09:27:58.046Z,30.19
2022-08-16T09:29:14.949Z,30.16
2022-08-16T09:30:02.596Z,30.12
2022-08-16T09:31:05.797Z,30.10
2022-08-16T09:32:08.873Z,30.07
2022-08-16T09:33:15.495Z,30.06
2022-08-16T09:34:20.454Z,30.03
2022-08-16T09:35:23.785Z,30.02
2022-08-16T09:36:32.462Z,30.01
2022-08-16T09:37:36.511Z,30.00
2022-08-16T09:38:40.962Z,29.99
2022-08-16T09:39:49.627Z,29.97
2022-08-16T09:40:49.323Z,29.97
2022-08-16T09:41:58.137Z,29.96
2022-08-16T09:43:01.422Z,29.94
2022-08-16T09:45:09.373Z,29.93
2022-08-16T09:45:18.272Z,29.92
2022-08-16T09:46:45.753Z,29.91
2022-08-16T09:47:23.530Z,29.88
2022-08-16T09:48:44.247Z,29.86
2022-08-16T09:49:36.838Z,29.83
2022-08-16T09:50:40.687Z,29.80
2022-08-16T09:51:45.613Z,29.77
2022-08-16T09:52:48.920Z,29.74
2022-08-16T09:53:55.157Z,29.73
2022-08-16T09:54:58.904Z,29.68
2022-08-16T09:56:03.661Z,29.66
2022-08-16T09:57:12.126Z,29.63
2022-08-16T09:58:41.779Z,29.60
2022-08-16T09:59:20.347Z,29.58
2022-08-16T10:00:42.422Z,29.55
2022-08-16T10:01:31.317Z,29.53
2022-08-16T10:02:44.247Z,29.51
2022-08-16T10:04:01.113Z,29.50
2022-08-16T10:04:54.736Z,29.48
2022-08-16T10:05:52.582Z,29.48
2022-08-16T10:08:01.164Z,29.48
2022-08-16T10:09:08.485Z,29.48
2022-08-16T10:10:30.382Z,29.47
2022-08-16T10:11:49.959Z,29.47
2022-08-16T10:13:00.823Z,29.46
2022-08-16T10:14:04.569Z,29.46
2022-08-16T10:15:08.552Z,29.43
2022-08-16T10:17:17.932Z,29.40
2022-08-16T10:19:00.484Z,29.39
2022-08-16T10:19:27.349Z,29.39
2022-08-16T10:20:34.139Z,29.36
2022-08-16T10:21:37.747Z,29.33
2022-08-16T10:22:41.147Z,29.30
2022-08-16T10:23:45.066Z,29.25
2022-08-16T10:24:55.989Z,29.22
2022-08-16T10:27:19.483Z,29.18
2022-08-16T10:27:26.598Z,29.17
2022-08-16T10:28:26.175Z,29.16
2022-08-16T10:29:09.478Z,29.14
2022-08-16T10:30:25.091Z,29.12
2022-08-16T10:31:45.471Z,29.07
2022-08-16T10:32:25.789Z,29.03
2022-08-16T10:33:33.780Z,29.00
2022-08-16T10:34:37.193Z,28.98
2022-08-16T10:35:46.598Z,28.94
2022-08-16T10:36:54.122Z,28.93
2022-08-16T10:37:55.477Z,28.90
2022-08-16T10:38:58.458Z,28.88
2022-08-16T10:40:01.597Z,28.86
2022-08-16T10:41:06.683Z,28.85
2022-08-16T10:42:13.531Z,28.82
2022-08-16T10:43:18.393Z,28.79
2022-08-16T10:44:21.690Z,28.77
2022-08-16T10:45:25.478Z,28.73
2022-08-16T10:46:39.455Z,28.71
2022-08-16T10:47:36.194Z,28.67
2022-08-16T10:48:47.025Z,28.65
2022-08-16T10:49:48.070Z,28.63
2022-08-16T10:50:51.724Z,28.59
2022-08-16T10:52:01.914Z,28.57
2022-08-16T10:53:05.679Z,28.55
2022-08-16T10:54:08.379Z,28.52
2022-08-16T10:56:55.934Z,28.47
2022-08-16T10:57:24.552Z,28.43
2022-08-16T10:58:34.291Z,28.41
2022-08-16T10:59:44.106Z,28.38
2022-08-16T11:00:40.320Z,28.37
2022-08-16T11:01:44.337Z,28.34
2022-08-16T11:02:59.736Z,28.33
2022-08-16T11:03:57.416Z,28.33
2022-08-16T11:05:08.160Z,28.31
2022-08-16T11:06:07.398Z,28.29
2022-08-16T11:08:17.415Z,28.29
2022-08-16T11:09:25.521Z,28.28
2022-08-16T11:12:13.256Z,28.28
2022-08-16T11:12:42.587Z,28.27
2022-08-16T11:14:11.004Z,28.26
2022-08-16T11:16:00.703Z,28.24
2022-08-16T11:17:10.745Z,28.23
2022-08-16T11:19:03.080Z,28.18
2022-08-16T11:19:18.078Z,28.15
2022-08-16T11:20:41.209Z,28.09
2022-08-16T11:21:28.781Z,28.04
2022-08-16T11:22:41.969Z,27.99
2022-08-16T11:23:37.927Z,27.97
2022-08-16T11:24:44.988Z,27.95
2022-08-16T11:26:16.621Z,27.92
2022-08-16T11:27:59.749Z,27.87
2022-08-16T11:29:18.550Z,27.85
2022-08-16T11:30:12.097Z,27.84
2022-08-16T11:31:15.496Z,27.83
2022-08-16T11:32:20.338Z,27.81
2022-08-16T11:33:51.934Z,27.79
2022-08-16T11:34:44.681Z,27.78
2022-08-16T11:36:53.884Z,27.74
2022-08-16T11:38:57.624Z,27.71
2022-08-16T11:40:00.005Z,27.68
2022-08-16T11:41:03.875Z,27.66
2022-08-16T11:42:16.755Z,27.65
2022-08-16T11:43:16.745Z,27.64
2022-08-16T11:44:40.014Z,27.63
2022-08-16T11:45:25.181Z,27.62
2022-08-16T11:46:44.771Z,27.62
2022-08-16T11:47:36.802Z,27.62
2022-08-16T11:48:39.906Z,27.62
2022-08-16T11:49:43.091Z,27.63
2022-08-16T11:50:46.975Z,27.63
2022-08-16T11:51:51.049Z,27.62
2022-08-16T11:52:53.977Z,27.62
2022-08-16T11:53:57.734Z,27.61
2022-08-16T11:55:00.925Z,27.60
2022-08-16T11:56:06.189Z,27.59
2022-08-16T11:57:10.269Z,27.57
2022-08-16T11:58:14.366Z,27.55
2022-08-16T11:59:18.929Z,27.53
2022-08-16T12:00:34.241Z,27.51
2022-08-16T12:01:54.802Z,27.49
2022-08-16T12:02:35.173Z,27.48
2022-08-16T12:03:41.807Z,27.46
2022-08-16T12:04:44.499Z,27.45
2022-08-16T12:05:51.908Z,27.43
2022-08-16T12:06:54.561Z,27.40
2022-08-16T12:07:58.134Z,27.40
2022-08-16T12:09:04.617Z,27.40
2022-08-16T12:10:11.969Z,27.39
2022-08-16T12:11:17.007Z,27.39
2022-08-16T12:12:23.512Z,27.38
2022-08-16T12:13:27.020Z,27.37
2022-08-16T12:14:35.317Z,27.37
2022-08-16T12:15:36.434Z,27.36
2022-08-16T12:16:48.770Z,27.36
2022-08-16T12:17:46.225Z,27.35
2022-08-16T12:19:52.486Z,27.29
2022-08-16T12:20:58.211Z,27.24
2022-08-16T12:22:00.748Z,27.20
2022-08-16T12:23:05.865Z,27.15
2022-08-16T12:24:08.941Z,27.10
2022-08-16T12:25:17.305Z,27.09
2022-08-16T12:26:23.178Z,27.07
2022-08-16T12:27:26.955Z,27.06
2022-08-16T12:28:54.046Z,27.04
2022-08-16T12:29:36.768Z,27.02
2022-08-16T12:30:44.070Z,27.01
2022-08-16T12:32:01.706Z,27.00
2022-08-16T12:32:57.703Z,27.00
2022-08-16T12:33:58.740Z,27.00
2022-08-16T12:35:01.788Z,27.00
2022-08-16T12:36:06.448Z,27.00
2022-08-16T12:37:13.285Z,27.02
2022-08-16T12:38:40.825Z,27.03
2022-08-16T12:39:22.064Z,27.04
2022-08-16T12:40:31.226Z,27.05
2022-08-16T12:41:36.906Z,27.06
2022-08-16T12:42:40.949Z,27.05
2022-08-16T12:43:45.937Z,27.03
2022-08-16T12:44:50.252Z,27.02
2022-08-16T12:45:55.434Z,26.98
2022-08-16T12:47:17.529Z,26.95
2022-08-16T12:48:42.412Z,26.92
2022-08-16T12:49:46.042Z,26.87
2022-08-16T12:50:50.327Z,26.79
2022-08-16T12:51:59.532Z,26.75
2022-08-16T12:52:58.942Z,26.72
2022-08-16T12:54:08.480Z,26.68
2022-08-16T12:55:14.276Z,26.66
2022-08-16T12:56:20.727Z,26.63
2022-08-16T12:57:24.942Z,26.61
2022-08-16T12:58:48.485Z,26.58
2022-08-16T12:59:38.676Z,26.57
2022-08-16T13:00:43.489Z,26.55
2022-08-16T13:01:50.266Z,26.54
2022-08-16T13:02:53.499Z,26.52
2022-08-16T13:04:19.661Z,26.52
2022-08-16T13:05:06.914Z,26.50
2022-08-16T13:06:12.360Z,26.51
2022-08-16T13:07:17.213Z,26.52
2022-08-16T13:08:20.556Z,26.51
2022-08-16T13:09:26.331Z,26.51
2022-08-16T13:10:37.155Z,26.53
2022-08-16T13:11:49.078Z,26.54
2022-08-16T13:12:52.398Z,26.59
2022-08-16T13:13:55.919Z,26.60
2022-08-16T13:14:58.886Z,26.62
2022-08-16T13:16:15.895Z,26.63
2022-08-16T13:17:18.929Z,26.65
2022-08-16T13:18:27.262Z,26.66
2022-08-16T13:19:22.660Z,26.68
2022-08-16T13:20:30.570Z,26.70
2022-08-16T13:21:33.782Z,26.72
2022-08-16T13:23:43.981Z,26.79
2022-08-16T13:24:47.170Z,26.81
2022-08-16T13:25:50.784Z,26.84
2022-08-16T13:26:56.105Z,26.87
2022-08-16T13:28:03.694Z,26.90
2022-08-16T13:29:04.679Z,26.92
2022-08-16T13:30:21.723Z,26.96
2022-08-16T13:31:15.729Z,26.99
2022-08-16T13:32:40.321Z,27.02
2022-08-16T13:33:30.353Z,27.04
2022-08-16T13:34:33.638Z,27.06
2022-08-16T13:35:37.716Z,27.09
2022-08-16T13:36:49.547Z,27.11
2022-08-16T13:37:47.988Z,27.14
2022-08-16T13:38:51.260Z,27.15
2022-08-16T13:39:54.607Z,27.17
2022-08-16T13:40:58.158Z,27.20
2022-08-16T13:42:02.580Z,27.23
2022-08-16T13:43:06.104Z,27.26
2022-08-16T13:44:11.092Z,27.30
2022-08-16T13:45:16.866Z,27.34
2022-08-16T13:46:20.361Z,27.38
2022-08-16T13:47:23.770Z,27.44
2022-08-16T13:48:43.019Z,27.50
2022-08-16T13:49:34.717Z,27.55
2022-08-16T13:50:49.156Z,27.61
2022-08-16T13:51:43.778Z,27.67
2022-08-16T13:52:48.228Z,27.76
2022-08-16T13:53:59.428Z,27.82
2022-08-16T13:55:01.537Z,27.87
2022-08-16T13:56:05.599Z,27.93
2022-08-16T13:57:11.630Z,27.98
2022-08-16T13:58:36.900Z,28.02
2022-08-16T13:59:21.166Z,28.07
2022-08-16T14:00:26.735Z,28.10
2022-08-16T14:01:30.040Z,28.15
2022-08-16T14:02:34.052Z,28.17
2022-08-16T14:03:39.322Z,28.20
2022-08-16T14:04:42.611Z,28.22
2022-08-16T14:05:45.793Z,28.26
2022-08-16T14:06:50.642Z,28.30
2022-08-16T14:07:53.971Z,28.35
2022-08-16T14:09:06.041Z,28.39
2022-08-16T14:10:02.398Z,28.42
2022-08-16T14:11:06.503Z,28.46
2022-08-16T14:12:20.581Z,28.49
2022-08-16T14:13:24.051Z,28.50
2022-08-16T14:14:29.923Z,28.52
2022-08-16T14:15:33.343Z,28.54
2022-08-16T14:16:38.225Z,28.55
2022-08-16T14:18:15.951Z,28.54
2022-08-16T14:18:48.692Z,28.54
2022-08-16T14:19:52.257Z,28.54